sensor_id;sensor_type;location;lat;lon;timestamp;P1;durP1;ratioP1;P2;durP2;ratioP2
55112;SDS011;41006;50.920;3.456;2022-12-29T00:00:06;5.57;;;5.10;;
55112;SDS011;41006;50.920;3.456;2022-12-29T00:00:38;5.43;;;5.13;;
55112;SDS011;41006;50.920;3.456;2022-12-29T00:01:11;5.53;;;5.13;;
55112;SDS011;41006;50.920;3.456;2022-12-29T00:01:44;5.03;;;4.72;;
55112;SDS011;41006;50.920;3.456;2022-12-29T00:02:14;5.45;;;5.13;;
55112;SDS011;41006;50.920;3.456;2022-12-29T00:02:47;5.50;;;5.20;;
55112;SDS011;41006;50.920;3.456;2022-12-29T00:03:18;5.40;;;4.80;;
55112;SDS011;41006;50.920;3.456;2022-12-29T00:03:51;5.30;;;5.05;;
55112;SDS011;41006;50.920;3.456;2022-12-29T00:04:23;5.38;;;5.07;;
55112;SDS011;41006;50.920;3.456;2022-12-29T00:04:56;5.60;;;5.30;;
55112;SDS011;41006;50.920;3.456;2022-12-29T00:05:27;5.75;;;5.22;;
55112;SDS011;41006;50.920;3.456;2022-12-29T00:05:59;5.13;;;4.80;;
55112;SDS011;41006;50.920;3.456;2022-12-29T00:06:30;5.72;;;5.43;;
55112;SDS011;41006;50.920;3.456;2022-12-29T00:07:01;5.28;;;5.00;;
55112;SDS011;41006;50.920;3.456;2022-12-29T00:07:36;5.40;;;5.10;;
55112;SDS011;41006;50.920;3.456;2022-12-29T00:08:07;5.63;;;5.22;;
55112;SDS011;41006;50.920;3.456;2022-12-29T00:08:37;5.40;;;5.10;;
55112;SDS011;41006;50.920;3.456;2022-12-29T00:09:11;6.05;;;5.75;;
55112;SDS011;41006;50.920;3.456;2022-12-29T00:09:45;5.82;;;5.53;;
55112;SDS011;41006;50.920;3.456;2022-12-29T00:10:15;5.78;;;5.53;;
55112;SDS011;41006;50.920;3.456;2022-12-29T00:10:46;5.93;;;5.63;;
55112;SDS011;41006;50.920;3.456;2022-12-29T00:11:23;5.93;;;5.63;;
55112;SDS011;41006;50.920;3.456;2022-12-29T00:11:55;5.75;;;5.40;;
55112;SDS011;41006;50.920;3.456;2022-12-29T00:12:28;6.40;;;6.10;;
55112;SDS011;41006;50.920;3.456;2022-12-29T00:13:22;5.85;;;5.55;;
55112;SDS011;41006;50.920;3.456;2022-12-29T00:14:11;6.03;;;5.53;;
55112;SDS011;41006;50.920;3.456;2022-12-29T00:15:03;6.30;;;6.00;;
55112;SDS011;41006;50.920;3.456;2022-12-29T00:15:55;5.82;;;5.53;;
55112;SDS011;41006;50.920;3.456;2022-12-29T00:16:27;6.05;;;5.75;;
55112;SDS011;41006;50.920;3.456;2022-12-29T00:17:01;5.85;;;5.53;;
55112;SDS011;41006;50.920;3.456;2022-12-29T00:17:32;6.28;;;5.97;;
55112;SDS011;41006;50.920;3.456;2022-12-29T00:18:02;6.15;;;5.88;;
55112;SDS011;41006;50.920;3.456;2022-12-29T00:18:33;6.43;;;5.97;;
55112;SDS011;41006;50.920;3.456;2022-12-29T00:19:06;6.55;;;6.20;;
55112;SDS011;41006;50.920;3.456;2022-12-29T00:19:36;6.47;;;6.03;;
55112;SDS011;41006;50.920;3.456;2022-12-29T00:20:25;6.00;;;5.70;;
55112;SDS011;41006;50.920;3.456;2022-12-29T00:21:14;6.32;;;6.00;;
55112;SDS011;41006;50.920;3.456;2022-12-29T00:22:08;5.10;;;4.80;;
55112;SDS011;41006;50.920;3.456;2022-12-29T00:22:59;5.38;;;5.03;;
55112;SDS011;41006;50.920;3.456;2022-12-29T00:23:48;6.60;;;6.05;;
55112;SDS011;41006;50.920;3.456;2022-12-29T00:24:40;6.70;;;6.20;;
55112;SDS011;41006;50.920;3.456;2022-12-29T00:25:31;6.00;;;5.60;;
55112;SDS011;41006;50.920;3.456;2022-12-29T00:26:20;6.07;;;5.70;;
55112;SDS011;41006;50.920;3.456;2022-12-29T00:27:10;6.38;;;5.90;;
55112;SDS011;41006;50.920;3.456;2022-12-29T00:28:02;6.15;;;5.85;;
55112;SDS011;41006;50.920;3.456;2022-12-29T00:28:51;5.80;;;5.50;;
55112;SDS011;41006;50.920;3.456;2022-12-29T00:29:42;5.97;;;5.68;;
55112;SDS011;41006;50.920;3.456;2022-12-29T00:30:31;6.50;;;5.90;;
55112;SDS011;41006;50.920;3.456;2022-12-29T00:31:20;6.43;;;6.07;;
55112;SDS011;41006;50.920;3.456;2022-12-29T00:32:12;6.50;;;6.00;;
55112;SDS011;41006;50.920;3.456;2022-12-29T00:33:04;6.63;;;6.22;;
55112;SDS011;41006;50.920;3.456;2022-12-29T00:34:00;6.93;;;6.50;;
55112;SDS011;41006;50.920;3.456;2022-12-29T00:34:49;6.40;;;5.90;;
55112;SDS011;41006;50.920;3.456;2022-12-29T00:35:53;5.40;;;4.88;;
55112;SDS011;41006;50.920;3.456;2022-12-29T00:36:36;5.40;;;5.00;;
55112;SDS011;41006;50.920;3.456;2022-12-29T00:37:11;5.57;;;5.07;;
55112;SDS011;41006;50.920;3.456;2022-12-29T00:37:45;6.15;;;5.63;;
55112;SDS011;41006;50.920;3.456;2022-12-29T00:38:40;6.70;;;6.10;;
55112;SDS011;41006;50.920;3.456;2022-12-29T00:39:35;6.10;;;5.68;;
55112;SDS011;41006;50.920;3.456;2022-12-29T00:40:24;6.20;;;5.70;;
55112;SDS011;41006;50.920;3.456;2022-12-29T00:41:13;5.85;;;5.45;;
55112;SDS011;41006;50.920;3.456;2022-12-29T00:42:05;5.90;;;5.60;;
55112;SDS011;41006;50.920;3.456;2022-12-29T00:42:55;5.93;;;5.53;;
55112;SDS011;41006;50.920;3.456;2022-12-29T00:43:44;6.75;;;6.15;;
55112;SDS011;41006;50.920;3.456;2022-12-29T00:44:33;7.30;;;6.70;;
55112;SDS011;41006;50.920;3.456;2022-12-29T00:45:06;7.20;;;6.60;;
55112;SDS011;41006;50.920;3.456;2022-12-29T00:45:39;7.50;;;6.80;;
55112;SDS011;41006;50.920;3.456;2022-12-29T00:46:13;7.30;;;6.75;;
55112;SDS011;41006;50.920;3.456;2022-12-29T00:46:43;6.30;;;6.05;;
55112;SDS011;41006;50.920;3.456;2022-12-29T00:47:17;6.50;;;6.20;;
55112;SDS011;41006;50.920;3.456;2022-12-29T00:47:49;6.75;;;6.40;;
55112;SDS011;41006;50.920;3.456;2022-12-29T00:48:20;6.63;;;6.20;;
55112;SDS011;41006;50.920;3.456;2022-12-29T00:49:12;7.25;;;6.65;;
55112;SDS011;41006;50.920;3.456;2022-12-29T00:50:36;7.50;;;5.95;;
55112;SDS011;41006;50.920;3.456;2022-12-29T00:51:12;4.90;;;4.50;;
55112;SDS011;41006;50.920;3.456;2022-12-29T00:51:43;5.80;;;5.50;;
55112;SDS011;41006;50.920;3.456;2022-12-29T00:52:16;10.38;;;5.78;;
55112;SDS011;41006;50.920;3.456;2022-12-29T00:52:46;8.10;;;5.72;;
55112;SDS011;41006;50.920;3.456;2022-12-29T00:53:19;6.32;;;5.93;;
55112;SDS011;41006;50.920;3.456;2022-12-29T00:53:52;6.43;;;5.80;;
55112;SDS011;41006;50.920;3.456;2022-12-29T00:54:22;7.60;;;6.80;;
55112;SDS011;41006;50.920;3.456;2022-12-29T00:54:53;6.90;;;6.28;;
55112;SDS011;41006;50.920;3.456;2022-12-29T00:55:26;6.60;;;6.10;;
55112;SDS011;41006;50.920;3.456;2022-12-29T00:55:59;6.97;;;6.32;;
55112;SDS011;41006;50.920;3.456;2022-12-29T00:56:30;8.80;;;6.10;;
55112;SDS011;41006;50.920;3.456;2022-12-29T00:57:00;6.90;;;6.30;;
55112;SDS011;41006;50.920;3.456;2022-12-29T00:57:32;7.15;;;6.65;;
55112;SDS011;41006;50.920;3.456;2022-12-29T00:58:02;8.32;;;6.47;;
55112;SDS011;41006;50.920;3.456;2022-12-29T00:58:33;7.35;;;6.40;;
55112;SDS011;41006;50.920;3.456;2022-12-29T00:59:04;6.85;;;6.25;;
55112;SDS011;41006;50.920;3.456;2022-12-29T00:59:40;7.07;;;6.13;;
55112;SDS011;41006;50.920;3.456;2022-12-29T01:00:11;6.28;;;5.78;;
55112;SDS011;41006;50.920;3.456;2022-12-29T01:00:44;8.10;;;5.88;;
55112;SDS011;41006;50.920;3.456;2022-12-29T01:01:15;7.88;;;5.78;;
55112;SDS011;41006;50.920;3.456;2022-12-29T01:01:48;6.22;;;5.63;;
55112;SDS011;41006;50.920;3.456;2022-12-29T01:02:18;7.80;;;6.25;;
55112;SDS011;41006;50.920;3.456;2022-12-29T01:02:49;6.55;;;6.03;;
55112;SDS011;41006;50.920;3.456;2022-12-29T01:03:22;6.88;;;5.85;;
55112;SDS011;41006;50.920;3.456;2022-12-29T01:03:55;7.65;;;6.25;;
55112;SDS011;41006;50.920;3.456;2022-12-29T01:04:26;6.30;;;6.00;;
55112;SDS011;41006;50.920;3.456;2022-12-29T01:04:56;6.45;;;5.85;;
55112;SDS011;41006;50.920;3.456;2022-12-29T01:05:35;7.53;;;6.80;;
55112;SDS011;41006;50.920;3.456;2022-12-29T01:06:11;7.20;;;6.60;;
55112;SDS011;41006;50.920;3.456;2022-12-29T01:06:41;7.57;;;7.07;;
55112;SDS011;41006;50.920;3.456;2022-12-29T01:07:12;7.72;;;7.15;;
55112;SDS011;41006;50.920;3.456;2022-12-29T01:07:44;7.50;;;7.00;;
55112;SDS011;41006;50.920;3.456;2022-12-29T01:08:17;7.50;;;7.00;;
55112;SDS011;41006;50.920;3.456;2022-12-29T01:08:48;7.82;;;6.90;;
55112;SDS011;41006;50.920;3.456;2022-12-29T01:09:38;6.70;;;6.25;;
55112;SDS011;41006;50.920;3.456;2022-12-29T01:10:27;7.35;;;6.47;;
55112;SDS011;41006;50.920;3.456;2022-12-29T01:10:58;7.28;;;6.70;;
55112;SDS011;41006;50.920;3.456;2022-12-29T01:11:29;7.50;;;6.75;;
55112;SDS011;41006;50.920;3.456;2022-12-29T01:12:02;7.13;;;6.63;;
55112;SDS011;41006;50.920;3.456;2022-12-29T01:12:34;7.80;;;6.72;;
55112;SDS011;41006;50.920;3.456;2022-12-29T01:13:10;8.35;;;6.60;;
55112;SDS011;41006;50.920;3.456;2022-12-29T01:13:45;6.82;;;6.30;;
55112;SDS011;41006;50.920;3.456;2022-12-29T01:14:18;8.23;;;6.10;;
55112;SDS011;41006;50.920;3.456;2022-12-29T01:14:51;7.20;;;6.80;;
55112;SDS011;41006;50.920;3.456;2022-12-29T01:15:24;8.23;;;7.47;;
55112;SDS011;41006;50.920;3.456;2022-12-29T01:15:54;7.88;;;7.38;;
55112;SDS011;41006;50.920;3.456;2022-12-29T01:16:25;7.80;;;7.13;;
55112;SDS011;41006;50.920;3.456;2022-12-29T01:17:01;9.95;;;7.68;;
55112;SDS011;41006;50.920;3.456;2022-12-29T01:17:31;7.65;;;6.90;;
55112;SDS011;41006;50.920;3.456;2022-12-29T01:18:07;7.63;;;6.93;;
55112;SDS011;41006;50.920;3.456;2022-12-29T01:18:40;6.85;;;6.22;;
55112;SDS011;41006;50.920;3.456;2022-12-29T01:19:11;9.02;;;6.65;;
55112;SDS011;41006;50.920;3.456;2022-12-29T01:19:42;7.20;;;6.50;;
55112;SDS011;41006;50.920;3.456;2022-12-29T01:20:12;8.63;;;6.53;;
55112;SDS011;41006;50.920;3.456;2022-12-29T01:20:43;7.75;;;7.10;;
55112;SDS011;41006;50.920;3.456;2022-12-29T01:21:16;8.07;;;7.38;;
55112;SDS011;41006;50.920;3.456;2022-12-29T01:21:47;8.38;;;7.70;;
55112;SDS011;41006;50.920;3.456;2022-12-29T01:22:18;7.50;;;7.10;;
55112;SDS011;41006;50.920;3.456;2022-12-29T01:22:48;8.02;;;7.30;;
55112;SDS011;41006;50.920;3.456;2022-12-29T01:23:21;7.95;;;7.47;;
55112;SDS011;41006;50.920;3.456;2022-12-29T01:23:51;8.50;;;7.70;;
55112;SDS011;41006;50.920;3.456;2022-12-29T01:24:24;9.85;;;7.93;;
55112;SDS011;41006;50.920;3.456;2022-12-29T01:24:56;8.50;;;7.78;;
55112;SDS011;41006;50.920;3.456;2022-12-29T01:25:26;8.57;;;7.05;;
55112;SDS011;41006;50.920;3.456;2022-12-29T01:25:57;7.05;;;6.65;;
55112;SDS011;41006;50.920;3.456;2022-12-29T01:26:30;7.25;;;6.55;;
55112;SDS011;41006;50.920;3.456;2022-12-29T01:27:02;7.85;;;7.10;;
55112;SDS011;41006;50.920;3.456;2022-12-29T01:27:35;6.88;;;6.47;;
55112;SDS011;41006;50.920;3.456;2022-12-29T01:28:05;7.70;;;7.20;;
55112;SDS011;41006;50.920;3.456;2022-12-29T01:28:40;7.93;;;7.35;;
55112;SDS011;41006;50.920;3.456;2022-12-29T01:29:11;9.18;;;7.68;;
55112;SDS011;41006;50.920;3.456;2022-12-29T01:29:44;7.18;;;6.68;;
55112;SDS011;41006;50.920;3.456;2022-12-29T01:30:18;8.48;;;7.70;;
55112;SDS011;41006;50.920;3.456;2022-12-29T01:30:50;7.38;;;5.70;;
55112;SDS011;41006;50.920;3.456;2022-12-29T01:31:21;8.90;;;6.20;;
55112;SDS011;41006;50.920;3.456;2022-12-29T01:31:51;6.35;;;5.57;;
55112;SDS011;41006;50.920;3.456;2022-12-29T01:32:22;5.05;;;4.85;;
55112;SDS011;41006;50.920;3.456;2022-12-29T01:32:52;5.72;;;4.82;;
55112;SDS011;41006;50.920;3.456;2022-12-29T01:33:22;4.85;;;4.40;;
55112;SDS011;41006;50.920;3.456;2022-12-29T01:33:53;7.22;;;5.13;;
55112;SDS011;41006;50.920;3.456;2022-12-29T01:34:26;9.02;;;5.28;;
55112;SDS011;41006;50.920;3.456;2022-12-29T01:34:58;5.40;;;5.00;;
55112;SDS011;41006;50.920;3.456;2022-12-29T01:35:29;5.82;;;5.32;;
55112;SDS011;41006;50.920;3.456;2022-12-29T01:36:03;8.77;;;6.40;;
55112;SDS011;41006;50.920;3.456;2022-12-29T01:36:35;7.43;;;6.20;;
55112;SDS011;41006;50.920;3.456;2022-12-29T01:37:06;7.57;;;6.47;;
55112;SDS011;41006;50.920;3.456;2022-12-29T01:37:41;6.72;;;6.13;;
55112;SDS011;41006;50.920;3.456;2022-12-29T01:38:11;6.97;;;6.32;;
55112;SDS011;41006;50.920;3.456;2022-12-29T01:38:42;6.20;;;5.63;;
55112;SDS011;41006;50.920;3.456;2022-12-29T01:39:16;8.75;;;5.68;;
55112;SDS011;41006;50.920;3.456;2022-12-29T01:39:53;6.28;;;5.78;;
55112;SDS011;41006;50.920;3.456;2022-12-29T01:40:26;7.15;;;5.88;;
55112;SDS011;41006;50.920;3.456;2022-12-29T01:40:58;6.30;;;5.80;;
55112;SDS011;41006;50.920;3.456;2022-12-29T01:41:31;7.30;;;6.40;;
55112;SDS011;41006;50.920;3.456;2022-12-29T01:42:02;6.63;;;5.97;;
55112;SDS011;41006;50.920;3.456;2022-12-29T01:42:45;7.45;;;6.25;;
55112;SDS011;41006;50.920;3.456;2022-12-29T01:43:15;7.03;;;5.93;;
55112;SDS011;41006;50.920;3.456;2022-12-29T01:45:22;7.82;;;5.97;;
55112;SDS011;41006;50.920;3.456;2022-12-29T01:45:58;6.78;;;6.10;;
55112;SDS011;41006;50.920;3.456;2022-12-29T01:46:40;7.25;;;6.03;;
55112;SDS011;41006;50.920;3.456;2022-12-29T01:48:04;6.30;;;5.80;;
55112;SDS011;41006;50.920;3.456;2022-12-29T01:48:41;8.15;;;5.50;;
55112;SDS011;41006;50.920;3.456;2022-12-29T01:49:23;6.72;;;6.03;;
55112;SDS011;41006;50.920;3.456;2022-12-29T01:49:58;6.60;;;6.18;;
55112;SDS011;41006;50.920;3.456;2022-12-29T01:50:32;6.45;;;6.00;;
55112;SDS011;41006;50.920;3.456;2022-12-29T01:51:08;6.88;;;6.35;;
55112;SDS011;41006;50.920;3.456;2022-12-29T01:51:43;7.50;;;6.80;;
55112;SDS011;41006;50.920;3.456;2022-12-29T01:52:35;7.20;;;6.60;;
55112;SDS011;41006;50.920;3.456;2022-12-29T01:53:31;7.72;;;6.95;;
55112;SDS011;41006;50.920;3.456;2022-12-29T01:54:05;7.35;;;6.68;;
55112;SDS011;41006;50.920;3.456;2022-12-29T01:54:45;7.63;;;6.93;;
55112;SDS011;41006;50.920;3.456;2022-12-29T01:55:23;10.27;;;6.78;;
55112;SDS011;41006;50.920;3.456;2022-12-29T01:55:59;8.27;;;6.40;;
55112;SDS011;41006;50.920;3.456;2022-12-29T01:56:37;8.73;;;6.70;;
55112;SDS011;41006;50.920;3.456;2022-12-29T01:57:10;7.57;;;6.80;;
55112;SDS011;41006;50.920;3.456;2022-12-29T01:57:46;7.35;;;6.78;;
55112;SDS011;41006;50.920;3.456;2022-12-29T01:58:22;8.25;;;7.38;;
55112;SDS011;41006;50.920;3.456;2022-12-29T01:58:56;9.25;;;6.93;;
55112;SDS011;41006;50.920;3.456;2022-12-29T01:59:37;7.20;;;6.53;;
55112;SDS011;41006;50.920;3.456;2022-12-29T02:00:16;7.80;;;7.20;;
55112;SDS011;41006;50.920;3.456;2022-12-29T02:00:50;6.88;;;6.25;;
55112;SDS011;41006;50.920;3.456;2022-12-29T02:01:23;8.40;;;6.63;;
55112;SDS011;41006;50.920;3.456;2022-12-29T02:01:55;9.05;;;7.18;;
55112;SDS011;41006;50.920;3.456;2022-12-29T02:02:31;7.50;;;6.78;;
55112;SDS011;41006;50.920;3.456;2022-12-29T02:03:02;9.52;;;7.00;;
55112;SDS011;41006;50.920;3.456;2022-12-29T02:03:36;7.95;;;6.50;;
55112;SDS011;41006;50.920;3.456;2022-12-29T02:04:10;12.75;;;7.75;;
55112;SDS011;41006;50.920;3.456;2022-12-29T02:04:43;8.43;;;6.90;;
55112;SDS011;41006;50.920;3.456;2022-12-29T02:05:17;8.13;;;7.43;;
55112;SDS011;41006;50.920;3.456;2022-12-29T02:07:11;8.00;;;7.40;;
55112;SDS011;41006;50.920;3.456;2022-12-29T02:07:48;7.35;;;6.85;;
55112;SDS011;41006;50.920;3.456;2022-12-29T02:08:21;8.10;;;7.40;;
55112;SDS011;41006;50.920;3.456;2022-12-29T02:08:59;7.00;;;6.50;;
55112;SDS011;41006;50.920;3.456;2022-12-29T02:09:30;7.03;;;6.47;;
55112;SDS011;41006;50.920;3.456;2022-12-29T02:10:03;7.72;;;6.85;;
55112;SDS011;41006;50.920;3.456;2022-12-29T02:10:34;7.78;;;7.10;;
55112;SDS011;41006;50.920;3.456;2022-12-29T02:11:06;9.00;;;8.10;;
55112;SDS011;41006;50.920;3.456;2022-12-29T02:11:40;8.13;;;7.32;;
55112;SDS011;41006;50.920;3.456;2022-12-29T02:12:11;12.30;;;8.40;;
55112;SDS011;41006;50.920;3.456;2022-12-29T02:12:41;8.80;;;7.90;;
55112;SDS011;41006;50.920;3.456;2022-12-29T02:13:14;8.95;;;8.07;;
55112;SDS011;41006;50.920;3.456;2022-12-29T02:13:47;8.98;;;8.18;;
55112;SDS011;41006;50.920;3.456;2022-12-29T02:14:17;8.50;;;7.93;;
55112;SDS011;41006;50.920;3.456;2022-12-29T02:14:48;8.98;;;8.27;;
55112;SDS011;41006;50.920;3.456;2022-12-29T02:15:25;9.30;;;8.50;;
55112;SDS011;41006;50.920;3.456;2022-12-29T02:17:08;7.60;;;6.35;;
55112;SDS011;41006;50.920;3.456;2022-12-29T02:20:42;7.68;;;6.75;;
55112;SDS011;41006;50.920;3.456;2022-12-29T02:22:34;7.30;;;6.80;;
55112;SDS011;41006;50.920;3.456;2022-12-29T02:24:20;7.03;;;6.43;;
55112;SDS011;41006;50.920;3.456;2022-12-29T02:30:44;7.32;;;6.32;;
55112;SDS011;41006;50.920;3.456;2022-12-29T02:32:13;9.30;;;6.38;;
55112;SDS011;41006;50.920;3.456;2022-12-29T02:35:58;9.52;;;6.72;;
55112;SDS011;41006;50.920;3.456;2022-12-29T02:37:02;7.75;;;6.95;;
55112;SDS011;41006;50.920;3.456;2022-12-29T02:37:43;7.75;;;6.25;;
55112;SDS011;41006;50.920;3.456;2022-12-29T02:40:57;6.78;;;6.10;;
55112;SDS011;41006;50.920;3.456;2022-12-29T02:41:41;6.60;;;5.95;;
55112;SDS011;41006;50.920;3.456;2022-12-29T02:44:15;10.75;;;5.88;;
55112;SDS011;41006;50.920;3.456;2022-12-29T02:45:05;6.25;;;5.63;;
55112;SDS011;41006;50.920;3.456;2022-12-29T02:45:51;9.65;;;5.97;;
55112;SDS011;41006;50.920;3.456;2022-12-29T02:47:15;7.50;;;5.80;;
55112;SDS011;41006;50.920;3.456;2022-12-29T02:48:32;6.00;;;5.40;;
55112;SDS011;41006;50.920;3.456;2022-12-29T02:49:20;6.43;;;5.70;;
55112;SDS011;41006;50.920;3.456;2022-12-29T02:49:59;7.00;;;5.10;;
55112;SDS011;41006;50.920;3.456;2022-12-29T02:51:50;5.50;;;5.13;;
55112;SDS011;41006;50.920;3.456;2022-12-29T02:52:35;6.47;;;5.00;;
55112;SDS011;41006;50.920;3.456;2022-12-29T02:53:11;9.30;;;5.47;;
55112;SDS011;41006;50.920;3.456;2022-12-29T02:53:45;7.88;;;5.78;;
55112;SDS011;41006;50.920;3.456;2022-12-29T02:54:35;6.32;;;5.70;;
55112;SDS011;41006;50.920;3.456;2022-12-29T02:55:14;9.68;;;5.50;;
55112;SDS011;41006;50.920;3.456;2022-12-29T02:55:51;9.60;;;5.55;;
55112;SDS011;41006;50.920;3.456;2022-12-29T02:56:23;11.35;;;6.20;;
55112;SDS011;41006;50.920;3.456;2022-12-29T02:56:54;8.73;;;5.35;;
55112;SDS011;41006;50.920;3.456;2022-12-29T02:58:47;7.43;;;4.93;;
55112;SDS011;41006;50.920;3.456;2022-12-29T02:59:18;6.78;;;4.82;;
55112;SDS011;41006;50.920;3.456;2022-12-29T02:59:51;5.57;;;4.32;;
55112;SDS011;41006;50.920;3.456;2022-12-29T03:00:28;8.17;;;4.70;;
55112;SDS011;41006;50.920;3.456;2022-12-29T03:01:59;6.72;;;4.38;;
55112;SDS011;41006;50.920;3.456;2022-12-29T03:02:54;7.07;;;6.55;;
55112;SDS011;41006;50.920;3.456;2022-12-29T03:05:55;12.85;;;7.10;;
55112;SDS011;41006;50.920;3.456;2022-12-29T03:07:31;12.95;;;6.28;;
55112;SDS011;41006;50.920;3.456;2022-12-29T03:08:26;8.45;;;6.65;;
55112;SDS011;41006;50.920;3.456;2022-12-29T03:09:52;9.32;;;6.43;;
55112;SDS011;41006;50.920;3.456;2022-12-29T03:14:27;8.32;;;6.80;;
55112;SDS011;41006;50.920;3.456;2022-12-29T03:15:22;8.60;;;7.43;;
55112;SDS011;41006;50.920;3.456;2022-12-29T03:16:24;7.80;;;7.20;;
55112;SDS011;41006;50.920;3.456;2022-12-29T03:17:01;11.48;;;7.13;;
55112;SDS011;41006;50.920;3.456;2022-12-29T03:17:51;11.38;;;7.78;;
55112;SDS011;41006;50.920;3.456;2022-12-29T03:19:44;6.97;;;6.03;;
55112;SDS011;41006;50.920;3.456;2022-12-29T03:20:23;8.52;;;6.40;;
55112;SDS011;41006;50.920;3.456;2022-12-29T03:21:19;7.22;;;6.50;;
55112;SDS011;41006;50.920;3.456;2022-12-29T03:22:21;7.50;;;6.93;;
55112;SDS011;41006;50.920;3.456;2022-12-29T03:23:01;10.43;;;7.13;;
55112;SDS011;41006;50.920;3.456;2022-12-29T03:23:38;7.28;;;6.65;;
55112;SDS011;41006;50.920;3.456;2022-12-29T03:24:17;7.07;;;6.40;;
55112;SDS011;41006;50.920;3.456;2022-12-29T03:25:15;7.15;;;6.50;;
55112;SDS011;41006;50.920;3.456;2022-12-29T03:25:51;9.93;;;7.18;;
55112;SDS011;41006;50.920;3.456;2022-12-29T03:26:28;6.90;;;6.20;;
55112;SDS011;41006;50.920;3.456;2022-12-29T03:27:06;14.10;;;7.18;;
55112;SDS011;41006;50.920;3.456;2022-12-29T03:27:44;7.20;;;6.30;;
55112;SDS011;41006;50.920;3.456;2022-12-29T03:28:21;7.80;;;6.20;;
55112;SDS011;41006;50.920;3.456;2022-12-29T03:28:54;7.95;;;6.18;;
55112;SDS011;41006;50.920;3.456;2022-12-29T03:29:27;7.88;;;6.07;;
55112;SDS011;41006;50.920;3.456;2022-12-29T03:30:04;7.88;;;6.32;;
55112;SDS011;41006;50.920;3.456;2022-12-29T03:30:39;10.70;;;6.60;;
55112;SDS011;41006;50.920;3.456;2022-12-29T03:31:11;9.23;;;5.90;;
55112;SDS011;41006;50.920;3.456;2022-12-29T03:31:44;18.80;;;6.22;;
55112;SDS011;41006;50.920;3.456;2022-12-29T03:32:19;13.43;;;6.05;;
55112;SDS011;41006;50.920;3.456;2022-12-29T03:32:52;8.95;;;4.82;;
55112;SDS011;41006;50.920;3.456;2022-12-29T03:33:28;11.05;;;4.53;;
55112;SDS011;41006;50.920;3.456;2022-12-29T03:34:01;12.75;;;5.53;;
55112;SDS011;41006;50.920;3.456;2022-12-29T03:34:36;12.05;;;5.20;;
55112;SDS011;41006;50.920;3.456;2022-12-29T03:35:10;9.40;;;4.75;;
55112;SDS011;41006;50.920;3.456;2022-12-29T03:35:48;8.65;;;4.72;;
55112;SDS011;41006;50.920;3.456;2022-12-29T03:36:29;7.38;;;5.20;;
55112;SDS011;41006;50.920;3.456;2022-12-29T03:37:12;8.75;;;5.03;;
55112;SDS011;41006;50.920;3.456;2022-12-29T03:38:02;11.07;;;4.95;;
55112;SDS011;41006;50.920;3.456;2022-12-29T03:38:48;5.95;;;4.25;;
55112;SDS011;41006;50.920;3.456;2022-12-29T03:39:27;9.45;;;4.60;;
55112;SDS011;41006;50.920;3.456;2022-12-29T03:40:01;13.98;;;5.32;;
55112;SDS011;41006;50.920;3.456;2022-12-29T03:40:32;13.85;;;5.13;;
55112;SDS011;41006;50.920;3.456;2022-12-29T03:41:05;5.45;;;4.43;;
55112;SDS011;41006;50.920;3.456;2022-12-29T03:41:43;11.75;;;4.60;;
55112;SDS011;41006;50.920;3.456;2022-12-29T03:42:19;14.77;;;5.07;;
55112;SDS011;41006;50.920;3.456;2022-12-29T03:42:56;10.35;;;4.82;;
55112;SDS011;41006;50.920;3.456;2022-12-29T03:43:30;9.68;;;4.70;;
55112;SDS011;41006;50.920;3.456;2022-12-29T03:44:01;8.55;;;4.78;;
55112;SDS011;41006;50.920;3.456;2022-12-29T03:44:36;10.32;;;6.20;;
55112;SDS011;41006;50.920;3.456;2022-12-29T03:45:10;5.28;;;4.80;;
55112;SDS011;41006;50.920;3.456;2022-12-29T03:45:43;8.93;;;5.05;;
55112;SDS011;41006;50.920;3.456;2022-12-29T03:46:16;8.82;;;4.30;;
55112;SDS011;41006;50.920;3.456;2022-12-29T03:46:46;9.52;;;5.63;;
55112;SDS011;41006;50.920;3.456;2022-12-29T03:47:20;11.43;;;4.85;;
55112;SDS011;41006;50.920;3.456;2022-12-29T03:47:54;10.75;;;4.82;;
55112;SDS011;41006;50.920;3.456;2022-12-29T03:48:27;9.77;;;4.60;;
55112;SDS011;41006;50.920;3.456;2022-12-29T03:49:00;10.75;;;5.03;;
55112;SDS011;41006;50.920;3.456;2022-12-29T03:49:35;19.98;;;5.13;;
55112;SDS011;41006;50.920;3.456;2022-12-29T03:50:06;12.38;;;5.03;;
55112;SDS011;41006;50.920;3.456;2022-12-29T03:50:38;11.18;;;5.03;;
55112;SDS011;41006;50.920;3.456;2022-12-29T03:51:09;7.00;;;4.50;;
55112;SDS011;41006;50.920;3.456;2022-12-29T03:51:41;11.68;;;4.57;;
55112;SDS011;41006;50.920;3.456;2022-12-29T03:52:14;12.30;;;5.15;;
55112;SDS011;41006;50.920;3.456;2022-12-29T03:52:45;6.63;;;4.40;;
55112;SDS011;41006;50.920;3.456;2022-12-29T03:53:15;12.13;;;5.07;;
55112;SDS011;41006;50.920;3.456;2022-12-29T03:53:46;7.22;;;4.72;;
55112;SDS011;41006;50.920;3.456;2022-12-29T03:54:17;6.57;;;4.18;;
55112;SDS011;41006;50.920;3.456;2022-12-29T03:54:47;9.70;;;4.63;;
55112;SDS011;41006;50.920;3.456;2022-12-29T03:55:18;15.10;;;4.85;;
55112;SDS011;41006;50.920;3.456;2022-12-29T03:55:53;10.35;;;4.65;;
55112;SDS011;41006;50.920;3.456;2022-12-29T03:56:28;10.35;;;4.10;;
55112;SDS011;41006;50.920;3.456;2022-12-29T03:56:58;10.63;;;3.75;;
55112;SDS011;41006;50.920;3.456;2022-12-29T03:57:28;8.27;;;4.70;;
55112;SDS011;41006;50.920;3.456;2022-12-29T03:58:01;9.63;;;6.00;;
55112;SDS011;41006;50.920;3.456;2022-12-29T03:58:32;12.77;;;6.72;;
55112;SDS011;41006;50.920;3.456;2022-12-29T03:59:02;11.80;;;6.00;;
55112;SDS011;41006;50.920;3.456;2022-12-29T03:59:32;10.45;;;5.50;;
55112;SDS011;41006;50.920;3.456;2022-12-29T04:00:04;11.15;;;5.93;;
55112;SDS011;41006;50.920;3.456;2022-12-29T04:00:35;7.28;;;5.82;;
55112;SDS011;41006;50.920;3.456;2022-12-29T04:01:11;7.85;;;5.47;;
55112;SDS011;41006;50.920;3.456;2022-12-29T04:01:46;6.75;;;4.95;;
55112;SDS011;41006;50.920;3.456;2022-12-29T04:02:21;9.57;;;5.55;;
55112;SDS011;41006;50.920;3.456;2022-12-29T04:02:54;15.07;;;5.40;;
55112;SDS011;41006;50.920;3.456;2022-12-29T04:03:24;8.10;;;5.00;;
55112;SDS011;41006;50.920;3.456;2022-12-29T04:03:57;10.10;;;5.40;;
55112;SDS011;41006;50.920;3.456;2022-12-29T04:04:28;6.53;;;5.03;;
55112;SDS011;41006;50.920;3.456;2022-12-29T04:05:00;10.00;;;5.43;;
55112;SDS011;41006;50.920;3.456;2022-12-29T04:05:34;12.52;;;5.22;;
55112;SDS011;41006;50.920;3.456;2022-12-29T04:06:07;7.45;;;5.00;;
55112;SDS011;41006;50.920;3.456;2022-12-29T04:06:40;11.10;;;5.25;;
55112;SDS011;41006;50.920;3.456;2022-12-29T04:07:13;9.90;;;5.13;;
55112;SDS011;41006;50.920;3.456;2022-12-29T04:07:43;8.75;;;4.85;;
55112;SDS011;41006;50.920;3.456;2022-12-29T04:08:21;6.82;;;5.65;;
55112;SDS011;41006;50.920;3.456;2022-12-29T04:08:52;7.97;;;5.72;;
55112;SDS011;41006;50.920;3.456;2022-12-29T04:09:22;7.65;;;5.60;;
55112;SDS011;41006;50.920;3.456;2022-12-29T04:09:53;7.97;;;5.63;;
55112;SDS011;41006;50.920;3.456;2022-12-29T04:10:25;9.10;;;5.35;;
55112;SDS011;41006;50.920;3.456;2022-12-29T04:10:58;11.70;;;5.72;;
55112;SDS011;41006;50.920;3.456;2022-12-29T04:11:34;10.88;;;5.28;;
55112;SDS011;41006;50.920;3.456;2022-12-29T04:12:09;7.20;;;4.63;;
55112;SDS011;41006;50.920;3.456;2022-12-29T04:12:41;8.52;;;5.00;;
55112;SDS011;41006;50.920;3.456;2022-12-29T04:13:16;10.68;;;5.47;;
55112;SDS011;41006;50.920;3.456;2022-12-29T04:13:49;10.43;;;4.50;;
55112;SDS011;41006;50.920;3.456;2022-12-29T04:14:20;14.48;;;4.53;;
55112;SDS011;41006;50.920;3.456;2022-12-29T04:14:50;5.93;;;4.20;;
55112;SDS011;41006;50.920;3.456;2022-12-29T04:15:24;12.60;;;4.57;;
55112;SDS011;41006;50.920;3.456;2022-12-29T04:15:56;17.42;;;4.38;;
55112;SDS011;41006;50.920;3.456;2022-12-29T04:16:26;12.82;;;3.75;;
55112;SDS011;41006;50.920;3.456;2022-12-29T04:16:57;7.18;;;3.50;;